Route Details

Aircraft Information
Group: North America Fleet
Types: B738, B752, B762, B763
Route Data
Distance: 1073nm
Duration: 3h 25m
Origin METAR: KBWI 170754Z 00000KT 10SM CLR 17/16 A3000 RMK AO2 SLP156 T01720156 $
Dest. METAR: KIAH 171053Z 00000KT 10SM FEW020 SCT250 26/24 A2996 RMK AO2 SLP145 T02610244
Freight Data
(for Aug 18, 2022)
Load Factor:
32%
Manifested Cargo: 31,684lbs
Financial History
Total Freight: 385,049lbs
Average Load: 0lbs/flt
Fuel Used: 134,956lbs
Avg. Fuel Used: 0lbs/flt
Fuel Expense: $61,115
Avg. Fuel Expense: $0
Avg. Fuel Cost: $0/lbs
Total Gross Income: $946,966
Pilot Pay: $905
Total Expenses: $129,025
Total Revenue: $753,395
Average Revenue: $0

Capitol Logistics 487




KBWI
Baltimore/Washington International Airport
Baltimore, Maryland
KIAH
George Bush Intcntl/Houston Airport
Houston, Texas

Activity Log

Date Flight Route Aircraft Duration
06/27/2022 CPX7340 FIXET3 MAULS Q40 AEX SKNRD4 B763 3h 08m
05/27/2022 CPX7340 TERPZ7 MAULS Q40 AEX ZEEKK2 B752 3h 08m
11/21/2021 CPX7340 TERPZ7 MAULS Q40 AEX DOOBI2 B762 3h 06m
09/21/2021 CPX7340 MAULS Q40 AEX B752 3h 02m
08/16/2021 CPX7340 TERPZ7 MAULS Q40 AEX DOOBI2 B752 3h 04m